createdAt,value
2023-05-21T00:00:16.657Z,16.81
2023-05-21T00:02:42.890Z,16.86
2023-05-21T00:05:14.783Z,16.21
2023-05-21T00:07:41.189Z,15.43
2023-05-21T00:10:07.750Z,16.63
2023-05-21T00:12:34.138Z,17.00
2023-05-21T00:15:00.974Z,16.94
2023-05-21T00:17:27.905Z,16.33
2023-05-21T00:19:54.627Z,16.89
2023-05-21T00:22:20.737Z,16.63
2023-05-21T00:24:46.874Z,16.69
2023-05-21T00:27:13.426Z,17.08
2023-05-21T00:29:40.639Z,17.22
2023-05-21T00:32:07.968Z,17.11
2023-05-21T00:34:34.196Z,16.94
2023-05-21T00:37:02.325Z,16.72
2023-05-21T00:39:28.466Z,16.65
2023-05-21T00:41:56.226Z,17.08
2023-05-21T00:44:23.182Z,16.50
2023-05-21T00:46:52.942Z,16.33
2023-05-21T00:49:21.714Z,16.82
2023-05-21T00:51:48.488Z,16.72
2023-05-21T00:54:14.635Z,16.22
2023-05-21T00:56:40.934Z,15.88
2023-05-21T00:59:07.115Z,16.09
2023-05-21T01:01:36.168Z,15.99
2023-05-21T01:04:02.799Z,16.58
2023-05-21T01:06:29.023Z,16.59
2023-05-21T01:08:55.641Z,17.01
2023-05-21T01:11:29.071Z,17.21
2023-05-21T01:13:55.422Z,16.60
2023-05-21T01:16:22.512Z,16.87
2023-05-21T01:18:49.439Z,17.01
2023-05-21T01:21:16.640Z,16.27
2023-05-21T01:23:42.905Z,16.17
2023-05-21T01:26:12.125Z,17.02
2023-05-21T01:28:38.234Z,15.54
2023-05-21T01:31:18.180Z,16.75
2023-05-21T01:33:49.832Z,16.99
2023-05-21T01:36:26.516Z,16.97
2023-05-21T01:39:22.116Z,17.11
2023-05-21T01:41:49.780Z,16.25
2023-05-21T01:44:17.697Z,17.23
2023-05-21T01:46:43.920Z,17.23
2023-05-21T01:49:10.742Z,16.82
2023-05-21T01:51:37.705Z,17.19
2023-05-21T01:54:03.837Z,17.22
2023-05-21T01:56:33.023Z,16.67
2023-05-21T01:58:59.476Z,16.47
2023-05-21T02:01:26.817Z,15.14
2023-05-21T02:03:53.159Z,16.90
2023-05-21T02:06:19.344Z,17.08
2023-05-21T02:08:45.619Z,16.92
2023-05-21T02:11:11.745Z,16.68
2023-05-21T02:13:41.834Z,17.00
2023-05-21T02:16:11.079Z,17.07
2023-05-21T02:18:37.809Z,17.07
2023-05-21T02:21:03.954Z,16.56
2023-05-21T02:23:30.172Z,16.99
2023-05-21T02:25:56.285Z,16.71
2023-05-21T02:28:23.221Z,16.93
2023-05-21T02:30:49.432Z,17.07
2023-05-21T02:33:15.978Z,17.13
2023-05-21T02:35:43.188Z,16.33
2023-05-21T02:38:09.798Z,16.65
2023-05-21T02:40:35.935Z,16.85
2023-05-21T02:43:02.046Z,16.41
2023-05-21T02:45:29.171Z,16.25
2023-05-21T02:47:55.360Z,16.83
2023-05-21T02:50:22.092Z,16.89
2023-05-21T02:52:48.500Z,16.76
2023-05-21T02:55:14.612Z,16.71
2023-05-21T02:57:40.723Z,16.63
2023-05-21T03:00:08.532Z,16.90
2023-05-21T03:02:35.106Z,16.25
2023-05-21T03:05:02.109Z,16.21
2023-05-21T03:07:28.248Z,15.35
2023-05-21T03:09:54.400Z,16.33
2023-05-21T03:12:20.567Z,16.43
2023-05-21T03:14:48.112Z,16.73
2023-05-21T03:17:14.554Z,16.47
2023-05-21T03:19:41.401Z,15.93
2023-05-21T03:22:07.537Z,16.81
2023-05-21T03:24:33.678Z,16.88
2023-05-21T03:27:05.602Z,15.81
2023-05-21T03:29:32.217Z,16.36
2023-05-21T03:31:58.407Z,16.76
2023-05-21T03:34:24.530Z,16.79
2023-05-21T03:36:50.699Z,16.86
2023-05-21T03:39:16.993Z,16.57
2023-05-21T03:41:43.156Z,14.87
2023-05-21T03:44:09.289Z,16.81
2023-05-21T03:46:35.601Z,16.30
2023-05-21T03:49:01.871Z,16.65
2023-05-21T03:51:29.330Z,16.69
2023-05-21T03:54:00.624Z,16.78
2023-05-21T03:56:26.735Z,16.85
2023-05-21T03:58:52.943Z,16.90
2023-05-21T04:01:19.178Z,15.51
2023-05-21T04:03:45.586Z,16.93
2023-05-21T04:06:11.801Z,16.43
2023-05-21T04:08:37.999Z,16.74
2023-05-21T04:11:04.248Z,16.45
2023-05-21T04:13:30.360Z,16.84
2023-05-21T04:15:56.476Z,16.90
2023-05-21T04:18:25.254Z,16.75
2023-05-21T04:20:51.442Z,16.54
2023-05-21T04:23:17.701Z,16.70
2023-05-21T04:25:43.862Z,16.11
2023-05-21T04:28:10.376Z,17.00
2023-05-21T04:30:36.479Z,17.03
2023-05-21T04:33:03.003Z,16.47
2023-05-21T04:35:29.148Z,16.76
2023-05-21T04:37:55.269Z,16.70
2023-05-21T04:40:23.860Z,16.96
2023-05-21T04:42:50.581Z,17.12
2023-05-21T04:45:19.244Z,16.80
2023-05-21T04:47:45.431Z,17.07
2023-05-21T04:50:11.657Z,17.12
2023-05-21T04:52:39.512Z,17.16
2023-05-21T04:55:07.027Z,17.25
2023-05-21T04:57:33.143Z,17.22
2023-05-21T04:59:59.270Z,17.08
2023-05-21T05:02:25.466Z,16.58
2023-05-21T05:04:51.588Z,17.24
2023-05-21T05:07:17.775Z,15.81
2023-05-21T05:09:43.863Z,16.08
2023-05-21T05:12:10.060Z,16.75
2023-05-21T05:14:36.173Z,17.08
2023-05-21T05:17:02.367Z,16.85
2023-05-21T05:19:28.640Z,17.31
2023-05-21T05:21:54.971Z,17.37
2023-05-21T05:24:21.113Z,17.18
2023-05-21T05:26:47.449Z,17.38
2023-05-21T05:29:13.635Z,17.23
2023-05-21T05:31:40.034Z,17.58
2023-05-21T05:34:06.312Z,17.64
2023-05-21T05:36:33.005Z,17.65
2023-05-21T05:38:59.106Z,17.58
2023-05-21T05:41:26.235Z,17.19
2023-05-21T05:43:52.421Z,17.68
2023-05-21T05:46:18.547Z,17.08
2023-05-21T05:48:45.051Z,17.53
2023-05-21T05:51:11.342Z,17.65
2023-05-21T05:53:37.451Z,17.76
2023-05-21T05:56:03.988Z,17.50
2023-05-21T05:58:30.509Z,17.52
2023-05-21T06:00:56.763Z,17.56
2023-05-21T06:03:23.002Z,17.65
2023-05-21T06:05:49.503Z,17.73
2023-05-21T06:08:15.956Z,17.21
2023-05-21T06:10:42.059Z,17.13
2023-05-21T06:13:08.201Z,17.52
2023-05-21T06:15:34.491Z,17.61
2023-05-21T06:18:00.804Z,17.77
2023-05-21T06:20:27.078Z,18.12
2023-05-21T06:22:53.232Z,17.39
2023-05-21T06:25:19.466Z,17.62
2023-05-21T06:27:45.804Z,17.63
2023-05-21T06:30:12.120Z,15.29
2023-05-21T06:32:38.285Z,17.95
2023-05-21T06:35:05.032Z,17.89
2023-05-21T06:37:31.182Z,17.81
2023-05-21T06:39:57.284Z,18.05
2023-05-21T06:42:23.399Z,18.13
2023-05-21T06:44:49.639Z,18.12
2023-05-21T06:47:15.912Z,17.21
2023-05-21T06:49:42.279Z,18.20
2023-05-21T06:52:08.477Z,18.06
2023-05-21T06:54:34.752Z,18.41
2023-05-21T06:57:01.030Z,18.08
2023-05-21T06:59:27.213Z,17.87
2023-05-21T07:01:53.489Z,18.15
2023-05-21T07:04:19.934Z,18.37
2023-05-21T07:06:46.103Z,18.58
2023-05-21T07:09:12.212Z,18.20
2023-05-21T07:11:38.410Z,18.22
2023-05-21T07:14:04.538Z,18.24
2023-05-21T07:16:30.718Z,18.64
2023-05-21T07:18:56.959Z,18.61
2023-05-21T07:21:23.524Z,18.89
2023-05-21T07:23:49.711Z,17.97
2023-05-21T07:26:16.031Z,18.54
2023-05-21T07:28:42.312Z,18.91
2023-05-21T07:31:11.449Z,18.92
2023-05-21T07:33:37.597Z,18.73
2023-05-21T07:36:04.300Z,19.45
2023-05-21T07:38:30.900Z,19.61
2023-05-21T07:40:57.153Z,19.24
2023-05-21T07:43:23.594Z,19.40
2023-05-21T07:45:49.786Z,19.46
2023-05-21T07:48:15.925Z,18.49
2023-05-21T07:50:42.306Z,19.08
2023-05-21T07:53:08.443Z,19.60
2023-05-21T07:55:35.352Z,19.66
2023-05-21T07:58:01.845Z,19.77
2023-05-21T08:00:28.005Z,19.51
2023-05-21T08:02:54.194Z,19.39
2023-05-21T08:05:20.806Z,19.57
2023-05-21T08:07:47.004Z,19.91
2023-05-21T08:10:13.124Z,19.70
2023-05-21T08:12:39.260Z,19.73
2023-05-21T08:15:05.775Z,19.49
2023-05-21T08:17:31.947Z,19.87
2023-05-21T08:19:58.078Z,19.38
2023-05-21T08:22:24.164Z,19.67
2023-05-21T08:24:50.364Z,19.43
2023-05-21T08:27:16.628Z,19.66
2023-05-21T08:29:43.105Z,20.24
2023-05-21T08:32:09.308Z,20.57
2023-05-21T08:34:35.652Z,21.12
2023-05-21T08:37:01.781Z,21.36
2023-05-21T08:39:27.903Z,21.27
2023-05-21T08:41:57.254Z,20.93
2023-05-21T08:44:25.911Z,19.82
2023-05-21T08:46:54.254Z,21.09
2023-05-21T08:49:25.069Z,21.37
2023-05-21T08:51:52.912Z,21.45
2023-05-21T08:54:19.073Z,20.67
2023-05-21T08:56:46.372Z,21.17
2023-05-21T08:59:12.787Z,17.83
2023-05-21T09:01:41.554Z,21.21
2023-05-21T09:04:19.620Z,21.00
2023-05-21T09:06:47.297Z,20.75
2023-05-21T09:09:25.612Z,21.18
2023-05-21T09:11:51.997Z,20.93
2023-05-21T09:14:18.685Z,20.60
2023-05-21T09:16:47.877Z,20.94
2023-05-21T09:19:14.016Z,21.44
2023-05-21T09:21:40.139Z,21.28
2023-05-21T09:24:09.026Z,21.18
2023-05-21T09:26:35.583Z,21.55
2023-05-21T09:29:01.868Z,21.26
2023-05-21T09:31:29.058Z,21.58
2023-05-21T09:33:55.532Z,21.56
2023-05-21T09:36:22.120Z,21.68
2023-05-21T09:38:48.946Z,21.52
2023-05-21T09:41:17.446Z,21.61
2023-05-21T09:43:46.070Z,22.11
2023-05-21T09:46:12.318Z,22.28
2023-05-21T09:48:41.261Z,21.99
2023-05-21T09:51:18.372Z,21.79
2023-05-21T09:53:53.187Z,21.90
2023-05-21T09:56:29.995Z,22.01
2023-05-21T09:58:59.550Z,22.22
2023-05-21T10:01:26.505Z,22.37
2023-05-21T10:03:58.245Z,22.06
2023-05-21T10:06:26.790Z,21.95
2023-05-21T10:08:56.072Z,22.48
2023-05-21T10:11:25.708Z,21.89
2023-05-21T10:14:05.589Z,22.57
2023-05-21T10:16:32.956Z,22.28
2023-05-21T10:19:00.076Z,23.21
2023-05-21T10:21:26.873Z,23.11
2023-05-21T10:23:56.365Z,23.25
2023-05-21T10:26:23.497Z,23.33
2023-05-21T10:28:54.907Z,21.91
2023-05-21T10:31:22.208Z,22.84
2023-05-21T10:33:48.875Z,22.90
2023-05-21T10:36:17.176Z,22.91
2023-05-21T10:38:44.124Z,22.62
2023-05-21T10:41:11.003Z,23.63
2023-05-21T10:44:21.799Z,23.33
2023-05-21T10:47:06.484Z,23.21
2023-05-21T10:49:47.901Z,23.39
2023-05-21T10:52:32.474Z,23.30
2023-05-21T10:55:13.273Z,24.05
2023-05-21T10:58:04.054Z,23.46
2023-05-21T11:00:30.923Z,23.51
2023-05-21T11:02:57.868Z,23.22
2023-05-21T11:05:51.131Z,23.36
2023-05-21T11:08:35.264Z,23.54
2023-05-21T11:11:02.758Z,23.76
2023-05-21T11:13:48.008Z,23.34
2023-05-21T11:16:17.334Z,24.33
2023-05-21T11:18:46.485Z,24.45
2023-05-21T11:21:22.084Z,20.22
2023-05-21T11:23:51.078Z,23.94
2023-05-21T11:26:17.242Z,24.46
2023-05-21T11:28:43.438Z,24.41
2023-05-21T11:31:26.224Z,23.05
2023-05-21T11:34:10.472Z,23.77
2023-05-21T11:36:37.529Z,24.22
2023-05-21T11:39:11.464Z,24.28
2023-05-21T11:41:50.522Z,24.61
2023-05-21T11:44:16.710Z,24.64
2023-05-21T11:46:42.866Z,25.22
2023-05-21T11:49:09.386Z,23.23
2023-05-21T11:51:36.041Z,25.15
2023-05-21T11:54:02.346Z,25.38
2023-05-21T11:56:31.168Z,25.23
2023-05-21T11:58:57.266Z,25.25
2023-05-21T12:01:26.995Z,24.65
2023-05-21T12:03:53.135Z,25.40
2023-05-21T12:06:25.915Z,25.93
2023-05-21T12:08:57.336Z,26.40
2023-05-21T12:11:23.460Z,26.30
2023-05-21T12:13:50.278Z,26.52
2023-05-21T12:16:16.518Z,26.07
2023-05-21T12:18:42.644Z,26.40
2023-05-21T12:21:10.016Z,25.82
2023-05-21T12:23:37.178Z,25.38
2023-05-21T12:26:03.989Z,26.14
2023-05-21T12:28:30.178Z,26.24
2023-05-21T12:30:56.423Z,26.06
2023-05-21T12:33:25.348Z,25.97
2023-05-21T12:35:51.788Z,26.05
2023-05-21T12:38:18.042Z,26.63
2023-05-21T12:40:44.871Z,26.46
2023-05-21T12:43:11.141Z,26.14
2023-05-21T12:45:38.692Z,26.66
2023-05-21T12:48:05.218Z,26.24
2023-05-21T12:50:32.393Z,25.06
2023-05-21T12:52:58.523Z,26.32
2023-05-21T12:55:27.886Z,25.89
2023-05-21T12:58:04.818Z,24.86
2023-05-21T13:00:32.211Z,26.03
2023-05-21T13:03:00.338Z,26.49
2023-05-21T13:05:26.564Z,26.27
2023-05-21T13:07:52.739Z,26.62
2023-05-21T13:10:33.939Z,26.46
2023-05-21T13:13:01.022Z,26.89
2023-05-21T13:15:27.144Z,27.68
2023-05-21T13:17:55.285Z,27.39
2023-05-21T13:20:25.665Z,26.54
2023-05-21T13:22:52.192Z,27.04
2023-05-21T13:25:23.924Z,26.36
2023-05-21T13:27:51.469Z,24.38
2023-05-21T13:30:18.481Z,26.83
2023-05-21T13:32:45.007Z,26.77
2023-05-21T13:35:11.380Z,26.53
2023-05-21T13:37:40.956Z,26.42
2023-05-21T13:40:10.438Z,27.09
2023-05-21T13:42:37.844Z,27.21
2023-05-21T13:45:05.363Z,27.66
2023-05-21T13:47:32.046Z,27.21
2023-05-21T13:49:58.459Z,27.34
2023-05-21T13:52:24.634Z,27.46
2023-05-21T13:54:50.866Z,27.36
2023-05-21T13:57:16.989Z,26.81
2023-05-21T13:59:43.079Z,26.56
2023-05-21T14:02:09.729Z,27.00
2023-05-21T14:04:38.369Z,26.63
2023-05-21T14:07:05.879Z,26.46
2023-05-21T14:09:31.971Z,27.01
2023-05-21T14:11:58.115Z,27.04
2023-05-21T14:14:24.527Z,27.20
2023-05-21T14:16:51.209Z,26.59
2023-05-21T14:19:17.834Z,27.04
2023-05-21T14:21:44.287Z,26.69
2023-05-21T14:24:10.439Z,26.96
2023-05-21T14:26:39.069Z,26.61
2023-05-21T14:29:05.541Z,27.03
2023-05-21T14:31:31.756Z,26.21
2023-05-21T14:33:58.047Z,27.14
2023-05-21T14:36:24.191Z,27.42
2023-05-21T14:38:50.341Z,26.89
2023-05-21T14:41:16.515Z,26.96
2023-05-21T14:43:42.693Z,26.53
2023-05-21T14:46:08.933Z,27.16
2023-05-21T14:48:35.176Z,25.82
2023-05-21T14:51:01.413Z,27.26
2023-05-21T14:53:27.609Z,26.84
2023-05-21T14:55:53.815Z,26.17
2023-05-21T14:58:19.941Z,25.91
2023-05-21T15:00:46.095Z,24.71
2023-05-21T15:03:12.544Z,26.57
2023-05-21T15:05:38.930Z,26.32
2023-05-21T15:08:07.340Z,26.19
2023-05-21T15:10:33.448Z,26.09
2023-05-21T15:12:59.573Z,25.48
2023-05-21T15:15:25.735Z,26.63
2023-05-21T15:17:51.985Z,26.52
2023-05-21T15:20:19.623Z,26.58
2023-05-21T15:22:47.092Z,26.71
2023-05-21T15:25:13.245Z,26.79
2023-05-21T15:27:39.369Z,26.40
2023-05-21T15:30:06.569Z,25.68
2023-05-21T15:32:32.702Z,26.63
2023-05-21T15:34:58.930Z,26.80
2023-05-21T15:37:25.771Z,26.50
2023-05-21T15:39:53.248Z,26.44
2023-05-21T15:42:19.440Z,26.62
2023-05-21T15:44:45.770Z,26.47
2023-05-21T15:47:11.868Z,26.52
2023-05-21T15:49:38.025Z,26.31
2023-05-21T15:52:04.489Z,26.44
2023-05-21T15:54:30.607Z,26.50
2023-05-21T15:56:56.830Z,26.11
2023-05-21T15:59:24.947Z,26.43
2023-05-21T16:01:51.082Z,25.41
2023-05-21T16:04:19.530Z,26.15
2023-05-21T16:06:46.763Z,25.31
2023-05-21T16:09:14.028Z,25.88
2023-05-21T16:11:40.242Z,26.22
2023-05-21T16:14:06.380Z,25.98
2023-05-21T16:16:33.368Z,26.19
2023-05-21T16:19:00.844Z,25.78
2023-05-21T16:21:27.365Z,25.97
2023-05-21T16:23:53.512Z,25.49
2023-05-21T16:26:20.679Z,26.38
2023-05-21T16:28:46.786Z,26.07
2023-05-21T16:31:13.235Z,25.90
2023-05-21T16:33:39.753Z,25.98
2023-05-21T16:36:05.942Z,25.80
2023-05-21T16:38:32.116Z,26.02
2023-05-21T16:40:58.276Z,25.00
2023-05-21T16:43:24.430Z,25.82
2023-05-21T16:45:52.235Z,25.84
2023-05-21T16:48:18.456Z,25.79
2023-05-21T16:50:46.215Z,25.64
2023-05-21T16:53:13.029Z,25.65
2023-05-21T16:55:39.828Z,25.87
2023-05-21T16:58:06.347Z,26.04
2023-05-21T17:00:33.435Z,25.89
2023-05-21T17:02:59.897Z,24.91
2023-05-21T17:05:26.197Z,25.85
2023-05-21T17:07:52.498Z,25.56
2023-05-21T17:10:18.935Z,25.76
2023-05-21T17:12:45.397Z,25.78
2023-05-21T17:15:11.514Z,25.65
2023-05-21T17:17:37.680Z,25.80
2023-05-21T17:20:04.222Z,25.72
2023-05-21T17:22:30.514Z,25.60
2023-05-21T17:24:57.948Z,25.65
2023-05-21T17:27:24.100Z,25.59
2023-05-21T17:29:50.296Z,25.39
2023-05-21T17:32:16.427Z,25.56
2023-05-21T17:34:42.945Z,25.43
2023-05-21T17:37:09.064Z,25.57
2023-05-21T17:39:35.191Z,25.48
2023-05-21T17:42:01.464Z,25.33
2023-05-21T17:44:27.723Z,24.40
2023-05-21T17:46:55.656Z,24.49
2023-05-21T17:49:21.943Z,25.39
2023-05-21T17:51:48.344Z,25.35
2023-05-21T17:54:15.192Z,25.36
2023-05-21T17:56:41.504Z,25.43
2023-05-21T17:59:10.646Z,25.26
2023-05-21T18:01:38.985Z,25.34
2023-05-21T18:04:10.177Z,25.16
2023-05-21T18:06:36.410Z,25.27
2023-05-21T18:09:02.626Z,25.17
2023-05-21T18:11:29.343Z,25.22
2023-05-21T18:13:55.491Z,25.03
2023-05-21T18:16:22.758Z,24.87
2023-05-21T18:18:48.962Z,25.17
2023-05-21T18:21:15.358Z,25.12
2023-05-21T18:23:41.570Z,25.12
2023-05-21T18:26:07.721Z,25.02
2023-05-21T18:28:34.776Z,25.00
2023-05-21T18:31:03.145Z,24.80
2023-05-21T18:33:30.076Z,24.82
2023-05-21T18:35:56.437Z,24.31
2023-05-21T18:38:22.642Z,24.84
2023-05-21T18:40:51.936Z,24.79
2023-05-21T18:43:18.114Z,25.05
2023-05-21T18:45:45.418Z,24.88
2023-05-21T18:48:11.891Z,24.93
2023-05-21T18:50:38.685Z,24.79
2023-05-21T18:53:05.321Z,25.02
2023-05-21T18:55:31.588Z,25.36
2023-05-21T18:57:57.738Z,25.17
2023-05-21T19:00:23.910Z,24.93
2023-05-21T19:02:50.209Z,24.98
2023-05-21T19:05:16.866Z,24.31
2023-05-21T19:07:43.127Z,24.74
2023-05-21T19:10:10.604Z,24.88
2023-05-21T19:12:38.711Z,24.66
2023-05-21T19:15:05.950Z,24.88
2023-05-21T19:17:33.862Z,24.73
2023-05-21T19:20:00.189Z,24.17
2023-05-21T19:22:27.141Z,24.91
2023-05-21T19:24:53.701Z,24.57
2023-05-21T19:27:20.362Z,24.91
2023-05-21T19:29:47.465Z,24.64
2023-05-21T19:32:15.256Z,24.64
2023-05-21T19:34:42.080Z,24.73
2023-05-21T19:37:08.251Z,24.61
2023-05-21T19:39:40.958Z,24.67
2023-05-21T19:42:07.884Z,24.83
2023-05-21T19:44:34.390Z,24.64
2023-05-21T19:47:01.394Z,24.82
2023-05-21T19:49:27.533Z,24.79
2023-05-21T19:51:54.226Z,24.78
2023-05-21T19:54:21.573Z,25.08
2023-05-21T19:56:47.770Z,24.70
2023-05-21T19:59:14.000Z,24.67
2023-05-21T20:01:42.503Z,24.66
2023-05-21T20:04:09.353Z,24.89
2023-05-21T20:06:35.692Z,24.78
2023-05-21T20:09:01.861Z,24.86
2023-05-21T20:11:28.071Z,24.51
2023-05-21T20:13:54.176Z,24.54
2023-05-21T20:16:20.799Z,24.35
2023-05-21T20:18:47.055Z,24.60
2023-05-21T20:21:20.732Z,24.59
2023-05-21T20:23:47.271Z,24.04
2023-05-21T20:26:14.173Z,24.35
2023-05-21T20:28:40.605Z,24.22
2023-05-21T20:31:06.767Z,24.01
2023-05-21T20:33:34.186Z,24.52
2023-05-21T20:36:00.519Z,23.77
2023-05-21T20:38:26.906Z,24.51
2023-05-21T20:40:56.195Z,24.61
2023-05-21T20:43:23.693Z,24.38
2023-05-21T20:45:50.238Z,24.36
2023-05-21T20:48:17.135Z,23.66
2023-05-21T20:50:48.264Z,24.40
2023-05-21T20:53:15.076Z,24.18
2023-05-21T20:55:43.703Z,23.87
2023-05-21T20:58:10.458Z,23.68
2023-05-21T21:00:41.375Z,23.96
2023-05-21T21:03:10.787Z,22.31
2023-05-21T21:05:37.359Z,23.97
2023-05-21T21:08:05.025Z,23.66
2023-05-21T21:10:35.165Z,23.87
2023-05-21T21:13:01.592Z,23.89
2023-05-21T21:15:27.729Z,23.88
2023-05-21T21:17:53.941Z,23.59
2023-05-21T21:20:20.156Z,23.23
2023-05-21T21:22:46.264Z,23.69
2023-05-21T21:25:15.798Z,23.73
2023-05-21T21:27:42.627Z,23.85
2023-05-21T21:30:09.326Z,23.59
2023-05-21T21:32:35.509Z,24.15
2023-05-21T21:35:01.686Z,24.00
2023-05-21T21:37:28.740Z,24.17
2023-05-21T21:39:55.500Z,23.85
2023-05-21T21:42:21.653Z,23.52
2023-05-21T21:44:47.893Z,23.87
2023-05-21T21:47:14.055Z,23.93
2023-05-21T21:49:40.798Z,23.79
2023-05-21T21:52:07.431Z,23.99
2023-05-21T21:54:34.130Z,23.77
2023-05-21T21:57:00.388Z,23.89
2023-05-21T21:59:26.559Z,23.42
2023-05-21T22:01:52.937Z,23.73
2023-05-21T22:04:19.107Z,23.92
2023-05-21T22:06:46.051Z,23.66
2023-05-21T22:09:12.478Z,23.84
2023-05-21T22:11:38.785Z,23.84
2023-05-21T22:14:05.374Z,23.85
2023-05-21T22:16:33.251Z,23.75
2023-05-21T22:18:59.936Z,23.29
2023-05-21T22:21:32.087Z,23.61
2023-05-21T22:23:58.731Z,23.10
2023-05-21T22:26:25.163Z,22.06
2023-05-21T22:28:51.330Z,22.66
2023-05-21T22:31:17.563Z,22.80
2023-05-21T22:33:43.765Z,22.55
2023-05-21T22:36:10.259Z,22.69
2023-05-21T22:38:37.073Z,23.01
2023-05-21T22:41:03.321Z,22.77
2023-05-21T22:43:29.707Z,22.72
2023-05-21T22:45:55.813Z,22.65
2023-05-21T22:48:22.084Z,23.06
2023-05-21T22:50:49.502Z,23.14
2023-05-21T22:53:16.651Z,23.17
2023-05-21T22:55:43.206Z,22.72
2023-05-21T22:58:09.509Z,23.18
2023-05-21T23:00:35.646Z,22.77
2023-05-21T23:03:01.850Z,22.55
2023-05-21T23:05:28.070Z,22.64
2023-05-21T23:07:54.186Z,22.83
2023-05-21T23:10:20.334Z,21.97
2023-05-21T23:12:46.438Z,22.73
2023-05-21T23:15:12.634Z,22.90
2023-05-21T23:17:38.873Z,22.82
2023-05-21T23:20:06.352Z,22.75
2023-05-21T23:22:32.478Z,22.81
2023-05-21T23:24:58.615Z,22.36
2023-05-21T23:27:24.754Z,22.46
2023-05-21T23:29:50.872Z,22.60
2023-05-21T23:32:17.288Z,22.37
2023-05-21T23:34:43.399Z,22.09
2023-05-21T23:37:09.485Z,21.78
2023-05-21T23:39:36.406Z,22.09
2023-05-21T23:42:02.704Z,20.63
2023-05-21T23:44:28.899Z,21.73
2023-05-21T23:46:55.081Z,21.90
2023-05-21T23:49:21.228Z,20.86
2023-05-21T23:51:49.884Z,21.73
2023-05-21T23:54:16.519Z,22.02
2023-05-21T23:56:43.056Z,22.15
2023-05-21T23:59:10.071Z,22.19
